createdAt,value
2023-03-21T00:00:22.541Z,29.51
2023-03-21T00:04:22.566Z,29.45
2023-03-21T00:08:22.500Z,29.42
2023-03-21T00:12:22.441Z,29.43
2023-03-21T00:16:28.344Z,29.41
2023-03-21T00:20:23.355Z,29.39
2023-03-21T00:24:22.328Z,29.41
2023-03-21T00:28:22.268Z,29.42
2023-03-21T00:32:22.264Z,29.37
2023-03-21T00:36:22.250Z,29.35
2023-03-21T00:40:29.368Z,29.38
2023-03-21T00:44:23.215Z,29.39
2023-03-21T00:48:22.225Z,29.45
2023-03-21T00:52:30.782Z,29.36
2023-03-21T00:56:23.088Z,29.32
2023-03-21T01:00:22.068Z,29.36
2023-03-21T01:04:22.078Z,29.31
2023-03-21T01:08:28.191Z,29.29
2023-03-21T01:12:22.982Z,29.32
2023-03-21T01:16:21.965Z,29.28
2023-03-21T01:20:21.908Z,29.22
2023-03-21T01:24:22.238Z,29.29
2023-03-21T01:28:21.930Z,29.23
2023-03-21T01:32:21.938Z,29.25
2023-03-21T01:36:23.498Z,29.32
2023-03-21T01:40:21.800Z,29.27
2023-03-21T01:44:21.812Z,29.21
2023-03-21T01:48:21.839Z,29.23
2023-03-21T01:52:35.491Z,29.20
2023-03-21T01:56:22.882Z,29.20
2023-03-21T02:00:21.836Z,29.18
2023-03-21T02:04:21.847Z,29.17
2023-03-21T02:08:25.873Z,29.17
2023-03-21T02:12:22.808Z,29.16
2023-03-21T02:16:21.830Z,29.17
2023-03-21T02:20:21.765Z,29.14
2023-03-21T02:24:21.821Z,29.14
2023-03-21T02:28:21.864Z,29.15
2023-03-21T02:32:36.308Z,29.13
2023-03-21T02:36:22.917Z,29.13
2023-03-21T02:40:21.861Z,29.13
2023-03-21T02:44:21.834Z,29.13
2023-03-21T02:48:29.271Z,29.10
2023-03-21T02:52:37.378Z,29.10
2023-03-21T02:56:22.821Z,29.10
2023-03-21T03:00:21.745Z,29.11
2023-03-21T03:04:21.764Z,29.05
2023-03-21T03:08:26.634Z,29.08
2023-03-21T03:12:22.645Z,29.10
2023-03-21T03:16:21.617Z,29.04
2023-03-21T03:20:21.574Z,29.08
2023-03-21T03:24:21.559Z,29.06
2023-03-21T03:28:21.542Z,29.08
2023-03-21T03:32:21.612Z,29.12
2023-03-21T03:36:31.547Z,29.08
2023-03-21T03:40:22.667Z,29.09
2023-03-21T03:44:21.609Z,29.08
2023-03-21T03:48:21.624Z,29.02
2023-03-21T03:52:21.537Z,29.06
2023-03-21T03:56:21.490Z,29.02
2023-03-21T04:00:21.508Z,29.05
2023-03-21T04:04:21.641Z,29.02
2023-03-21T04:08:21.651Z,29.00
2023-03-21T04:12:21.774Z,29.03
2023-03-21T04:16:21.853Z,29.03
2023-03-21T04:20:35.615Z,28.98
2023-03-21T04:24:22.902Z,28.99
2023-03-21T04:28:21.854Z,29.00
2023-03-21T04:32:21.818Z,28.97
2023-03-21T04:36:21.764Z,28.92
2023-03-21T04:40:21.806Z,28.94
2023-03-21T04:44:21.927Z,28.96
2023-03-21T04:48:22.018Z,28.97
2023-03-21T04:52:23.757Z,28.97
2023-03-21T04:56:22.069Z,28.96
2023-03-21T05:00:22.037Z,28.97
2023-03-21T05:04:22.066Z,28.92
2023-03-21T05:08:21.958Z,28.94
2023-03-21T05:12:21.911Z,28.96
2023-03-21T05:16:21.922Z,28.97
2023-03-21T05:20:22.160Z,28.90
2023-03-21T05:24:21.783Z,28.90
2023-03-21T05:28:21.741Z,28.90
2023-03-21T05:32:21.727Z,28.92
2023-03-21T05:36:21.700Z,28.91
2023-03-21T05:40:21.655Z,28.91
2023-03-21T05:44:21.613Z,28.91
2023-03-21T05:48:21.620Z,28.92
2023-03-21T05:52:21.559Z,28.87
2023-03-21T05:56:21.496Z,28.90
2023-03-21T06:00:21.596Z,28.84
2023-03-21T06:04:21.706Z,28.87
2023-03-21T06:08:21.860Z,28.88
2023-03-21T06:12:21.982Z,28.85
2023-03-21T06:16:22.159Z,28.80
2023-03-21T06:20:22.262Z,28.82
2023-03-21T06:24:22.353Z,28.79
2023-03-21T06:28:22.466Z,28.83
2023-03-21T06:32:22.637Z,28.79
2023-03-21T06:36:22.742Z,28.80
2023-03-21T06:40:23.200Z,28.96
2023-03-21T06:44:22.957Z,29.26
2023-03-21T06:48:23.205Z,29.76
2023-03-21T06:52:23.013Z,30.35
2023-03-21T06:56:23.193Z,30.97
2023-03-21T07:00:23.173Z,31.29
2023-03-21T07:04:22.891Z,31.42
2023-03-21T07:08:22.875Z,31.71
2023-03-21T07:12:22.845Z,31.93
2023-03-21T07:16:23.234Z,32.15
2023-03-21T07:20:22.777Z,32.22
2023-03-21T07:24:22.728Z,32.25
2023-03-21T07:28:22.701Z,32.09
2023-03-21T07:32:22.776Z,32.37
2023-03-21T07:36:22.734Z,32.45
2023-03-21T07:40:22.677Z,32.59
2023-03-21T07:44:22.653Z,32.69
2023-03-21T07:48:22.785Z,32.68
2023-03-21T07:52:22.743Z,32.73
2023-03-21T07:56:22.734Z,33.18
2023-03-21T08:00:22.531Z,33.29
2023-03-21T08:04:22.486Z,33.46
2023-03-21T08:08:22.427Z,33.58
2023-03-21T08:12:22.424Z,33.84
2023-03-21T08:16:22.420Z,34.00
2023-03-21T08:20:22.324Z,34.25
2023-03-21T08:24:22.392Z,34.42
2023-03-21T08:28:22.483Z,34.56
2023-03-21T08:32:22.511Z,34.81
2023-03-21T08:36:22.539Z,34.74
2023-03-21T08:40:22.736Z,34.45
2023-03-21T08:44:22.525Z,34.30
2023-03-21T08:48:22.769Z,34.91
2023-03-21T08:52:22.741Z,30.92
2023-03-21T08:56:22.674Z,31.21
2023-03-21T09:00:23.757Z,32.87
2023-03-21T09:04:23.267Z,33.67
2023-03-21T09:08:22.869Z,34.29
2023-03-21T09:12:22.853Z,34.91
2023-03-21T09:16:22.845Z,35.39
2023-03-21T09:20:22.789Z,35.81
2023-03-21T09:24:22.753Z,36.22
2023-03-21T09:28:22.717Z,36.61
2023-03-21T09:32:22.694Z,37.12
2023-03-21T09:36:22.759Z,37.63
2023-03-21T09:40:22.761Z,35.88
2023-03-21T09:44:22.561Z,30.55
2023-03-21T09:48:22.776Z,31.05
2023-03-21T09:52:22.739Z,30.38
2023-03-21T09:56:22.784Z,27.87
2023-03-21T10:00:22.520Z,27.04
2023-03-21T10:04:22.515Z,27.54
2023-03-21T10:08:22.796Z,29.18
2023-03-21T10:12:22.323Z,30.23
2023-03-21T10:16:22.589Z,30.75
2023-03-21T10:20:22.622Z,31.01
2023-03-21T10:24:22.771Z,31.18
2023-03-21T10:28:22.424Z,31.23
2023-03-21T10:32:22.879Z,31.14
2023-03-21T10:36:22.377Z,31.12
2023-03-21T10:40:22.785Z,31.12
2023-03-21T10:44:22.306Z,29.56
2023-03-21T10:48:22.403Z,30.23
2023-03-21T10:52:22.192Z,30.75
2023-03-21T10:56:22.178Z,31.08
2023-03-21T11:00:22.277Z,31.08
2023-03-21T11:04:22.246Z,30.88
2023-03-21T11:08:22.405Z,29.67
2023-03-21T11:12:22.534Z,30.15
2023-03-21T11:16:22.709Z,29.94
2023-03-21T11:20:22.826Z,30.03
2023-03-21T11:24:23.012Z,30.07
2023-03-21T11:28:23.136Z,29.82
2023-03-21T11:32:23.219Z,29.79
2023-03-21T11:36:23.862Z,30.15
2023-03-21T11:40:23.873Z,30.42
2023-03-21T11:44:23.517Z,30.70
2023-03-21T11:48:23.628Z,31.76
2023-03-21T11:52:23.587Z,32.48
2023-03-21T11:56:23.826Z,33.27
2023-03-21T12:00:23.722Z,33.94
2023-03-21T12:04:23.635Z,34.66
2023-03-21T12:08:23.562Z,35.46
2023-03-21T12:12:30.010Z,35.97
2023-03-21T12:16:24.595Z,36.35
2023-03-21T12:20:23.467Z,36.91
2023-03-21T12:24:23.418Z,37.28
2023-03-21T12:28:32.389Z,37.69
2023-03-21T12:32:24.850Z,38.15
2023-03-21T12:36:23.873Z,37.73
2023-03-21T12:40:23.434Z,37.39
2023-03-21T12:44:23.593Z,37.03
2023-03-21T12:48:23.934Z,36.79
2023-03-21T12:52:23.783Z,36.51
2023-03-21T12:56:23.929Z,36.39
2023-03-21T13:00:24.251Z,36.22
2023-03-21T13:04:24.891Z,35.41
2023-03-21T13:08:24.105Z,29.60
2023-03-21T13:12:24.056Z,27.22
2023-03-21T13:16:24.147Z,26.63
2023-03-21T13:20:23.993Z,25.79
2023-03-21T13:24:24.333Z,25.41
2023-03-21T13:28:23.919Z,27.93
2023-03-21T13:32:23.976Z,30.06
2023-03-21T13:36:23.849Z,29.64
2023-03-21T13:40:23.821Z,29.79
2023-03-21T13:44:23.789Z,30.01
2023-03-21T13:48:23.891Z,30.70
2023-03-21T13:52:23.695Z,30.76
2023-03-21T13:56:23.690Z,31.00
2023-03-21T14:00:23.709Z,31.08
2023-03-21T14:04:27.186Z,31.26
2023-03-21T14:08:36.443Z,31.32
2023-03-21T14:12:24.550Z,31.49
2023-03-21T14:16:23.509Z,31.55
2023-03-21T14:20:23.969Z,31.47
2023-03-21T14:24:23.409Z,31.77
2023-03-21T14:28:23.892Z,31.95
2023-03-21T14:32:23.322Z,31.78
2023-03-21T14:36:23.380Z,31.79
2023-03-21T14:40:23.287Z,31.78
2023-03-21T14:44:23.257Z,31.85
2023-03-21T14:48:23.286Z,31.77
2023-03-21T14:52:23.259Z,31.75
2023-03-21T14:56:23.249Z,31.68
2023-03-21T15:00:23.384Z,31.75
2023-03-21T15:04:23.526Z,31.75
2023-03-21T15:08:23.988Z,31.72
2023-03-21T15:12:24.625Z,31.69
2023-03-21T15:16:23.978Z,31.64
2023-03-21T15:20:24.116Z,31.71
2023-03-21T15:24:24.314Z,31.64
2023-03-21T15:28:24.421Z,31.63
2023-03-21T15:32:24.603Z,31.61
2023-03-21T15:36:24.819Z,31.58
2023-03-21T15:40:25.069Z,31.59
2023-03-21T15:44:25.225Z,31.53
2023-03-21T15:48:25.443Z,31.53
2023-03-21T15:52:25.660Z,31.50
2023-03-21T15:56:25.950Z,31.37
2023-03-21T16:00:25.870Z,31.37
2023-03-21T16:04:25.774Z,31.27
2023-03-21T16:08:25.716Z,31.27
2023-03-21T16:12:25.789Z,31.21
2023-03-21T16:16:25.720Z,31.14
2023-03-21T16:20:25.662Z,31.16
2023-03-21T16:24:25.592Z,31.12
2023-03-21T16:28:25.609Z,31.13
2023-03-21T16:32:25.529Z,30.99
2023-03-21T16:36:25.489Z,31.03
2023-03-21T16:40:25.446Z,31.00
2023-03-21T16:44:25.446Z,30.90
2023-03-21T16:48:25.500Z,30.91
2023-03-21T16:52:26.450Z,30.83
2023-03-21T16:56:25.445Z,30.88
2023-03-21T17:00:25.405Z,30.88
2023-03-21T17:04:25.389Z,30.80
2023-03-21T17:08:25.393Z,30.80
2023-03-21T17:12:25.355Z,30.80
2023-03-21T17:16:26.922Z,30.80
2023-03-21T17:20:25.409Z,30.79
2023-03-21T17:24:25.427Z,30.76
2023-03-21T17:28:25.435Z,30.76
2023-03-21T17:32:25.504Z,30.77
2023-03-21T17:36:25.550Z,30.75
2023-03-21T17:40:25.631Z,30.81
2023-03-21T17:44:25.733Z,30.77
2023-03-21T17:48:25.755Z,30.84
2023-03-21T17:52:25.847Z,30.79
2023-03-21T17:56:25.904Z,30.79
2023-03-21T18:00:26.058Z,30.82
2023-03-21T18:04:26.278Z,30.73
2023-03-21T18:08:26.228Z,30.80
2023-03-21T18:12:26.390Z,30.79
2023-03-21T18:16:26.420Z,30.77
2023-03-21T18:20:44.454Z,30.76
2023-03-21T18:24:27.453Z,30.72
2023-03-21T18:28:26.406Z,30.77
2023-03-21T18:32:26.490Z,30.73
2023-03-21T18:36:28.707Z,30.74
2023-03-21T18:40:26.345Z,30.73
2023-03-21T18:44:26.303Z,30.69
2023-03-21T18:48:26.344Z,30.72
2023-03-21T18:52:26.535Z,30.69
2023-03-21T19:00:27.228Z,30.68
2023-03-21T19:04:30.316Z,30.65
2023-03-21T19:08:26.084Z,30.62
2023-03-21T19:12:26.042Z,30.59
2023-03-21T19:16:30.772Z,30.63
2023-03-21T19:20:26.990Z,30.62
2023-03-21T19:24:28.567Z,30.58
2023-03-21T19:28:25.913Z,30.60
2023-03-21T19:32:25.867Z,30.57
2023-03-21T19:36:26.412Z,30.58
2023-03-21T19:40:25.800Z,30.50
2023-03-21T19:44:25.748Z,30.53
2023-03-21T19:48:27.088Z,30.50
2023-03-21T19:52:25.711Z,30.48
2023-03-21T19:56:27.289Z,30.50
2023-03-21T20:00:25.623Z,30.45
2023-03-21T20:04:25.597Z,30.47
2023-03-21T20:08:25.555Z,30.47
2023-03-21T20:12:25.642Z,30.41
2023-03-21T20:16:33.659Z,30.46
2023-03-21T20:20:26.752Z,30.42
2023-03-21T20:24:25.732Z,30.43
2023-03-21T20:28:28.459Z,30.32
2023-03-21T20:32:25.645Z,30.42
2023-03-21T20:36:43.105Z,30.37
2023-03-21T20:40:26.617Z,30.30
2023-03-21T20:44:48.411Z,30.32
2023-03-21T20:48:26.518Z,30.33
2023-03-21T20:52:57.841Z,30.27
2023-03-21T20:56:26.466Z,30.30
2023-03-21T21:00:25.402Z,30.26
2023-03-21T21:04:44.203Z,30.26
2023-03-21T21:08:26.565Z,30.23
2023-03-21T21:12:26.034Z,30.26
2023-03-21T21:16:25.796Z,30.29
2023-03-21T21:20:25.939Z,30.27
2023-03-21T21:24:26.181Z,30.21
2023-03-21T21:28:26.353Z,30.22
2023-03-21T21:32:26.568Z,30.19
2023-03-21T21:36:26.793Z,30.19
2023-03-21T21:40:27.015Z,30.18
2023-03-21T21:44:27.222Z,30.16
2023-03-21T21:48:27.170Z,30.15
2023-03-21T21:52:27.166Z,30.15
2023-03-21T21:56:27.109Z,30.16
2023-03-21T22:00:27.075Z,30.11
2023-03-21T22:04:27.060Z,30.12
2023-03-21T22:08:26.997Z,30.10
2023-03-21T22:12:26.961Z,30.10
2023-03-21T22:16:26.992Z,30.06
2023-03-21T22:20:26.913Z,30.07
2023-03-21T22:24:26.947Z,30.05
2023-03-21T22:28:26.933Z,30.04
2023-03-21T22:32:26.903Z,30.01
2023-03-21T22:36:26.845Z,30.05
2023-03-21T22:40:26.816Z,30.01
2023-03-21T22:44:26.784Z,30.04
2023-03-21T22:48:26.740Z,30.00
2023-03-21T22:52:26.693Z,29.99
2023-03-21T22:56:26.680Z,29.97
2023-03-21T23:00:26.647Z,29.99
2023-03-21T23:04:26.696Z,29.99
2023-03-21T23:08:26.597Z,30.02
2023-03-21T23:12:26.564Z,29.99
2023-03-21T23:16:26.532Z,30.02
2023-03-21T23:20:26.498Z,29.91
2023-03-21T23:24:26.421Z,29.95
2023-03-21T23:28:26.395Z,29.97
2023-03-21T23:32:26.389Z,29.94
2023-03-21T23:36:26.343Z,29.93
2023-03-21T23:40:26.296Z,29.97
2023-03-21T23:44:26.271Z,29.93
2023-03-21T23:48:26.233Z,29.94
2023-03-21T23:52:26.191Z,29.96
2023-03-21T23:56:26.160Z,29.91
